Time;durP1;ratioP1;P1;durP2;ratioP2;P2;SDS_P1;SDS_P2;PMS_P1;PMS_P2;Temp;Humidity;BMP_temperature;BMP_pressure;BME280_temperature;BME280_humidity;BME280_pressure;Samples;Min_cycle;Max_cycle;Signal;HPM_P1;HPM_P2
2021/10/21 04:17:08;;;;;;;0.50;0.32;;;;;;;14.93;84.72;97342.19;5238960;22;20273;-71
2021/10/21 04:19:34;;;;;;;1.45;1.17;;;;;;;14.81;84.78;97347.19;5052042;28;20037;-71
2021/10/21 04:22:01;;;;;;;0.30;0.30;;;;;;;14.86;83.13;97346.91;5051627;28;20063;-71
2021/10/21 04:24:27;;;;;;;0.45;0.45;;;;;;;14.78;81.33;97354.34;5051931;28;20063;-71
2021/10/21 04:26:52;;;;;;;0.30;0.30;;;;;;;14.78;80.85;97351.72;5037274;28;20067;-71
2021/10/21 04:29:17;;;;;;;0.30;0.30;;;;;;;14.78;79.97;97368.22;5031799;28;20533;-71
2021/10/21 04:31:43;;;;;;;0.30;0.30;;;;;;;14.83;77.63;97370.56;5032115;28;20136;-72
2021/10/21 04:34:08;;;;;;;0.57;0.57;;;;;;;14.73;79.55;97380.69;5032052;28;20041;-72
2021/10/21 04:36:33;;;;;;;0.50;0.50;;;;;;;14.60;79.23;97388.38;5031926;28;20018;-72
2021/10/21 04:38:59;;;;;;;0.30;0.30;;;;;;;14.78;76.07;97388.22;5031832;28;20385;-73
2021/10/21 04:41:24;;;;;;;0.43;0.32;;;;;;;14.63;78.48;97390.78;5031641;28;20037;-74
2021/10/21 04:43:49;;;;;;;0.63;0.45;;;;;;;14.56;75.71;97410.31;4965742;28;20069;-73
2021/10/21 04:46:15;;;;;;;0.30;0.30;;;;;;;14.51;73.83;97417.56;4992436;28;20101;-73
2021/10/21 04:48:40;;;;;;;0.30;0.30;;;;;;;14.55;72.06;97408.66;4992720;28;20463;-73
2021/10/21 04:51:06;;;;;;;0.30;0.30;;;;;;;14.43;73.21;97444.94;4992567;28;20042;-73
2021/10/21 04:53:32;;;;;;;0.32;0.32;;;;;;;14.29;72.74;97464.75;4992283;28;20045;-73
2021/10/21 04:55:57;;;;;;;0.20;0.20;;;;;;;14.39;68.36;97465.09;4992256;28;20023;-69
2021/10/21 04:58:23;;;;;;;0.30;0.30;;;;;;;14.27;71.53;97465.78;4992347;28;20069;-69
2021/10/21 05:00:48;;;;;;;0.40;0.40;;;;;;;14.19;70.71;97473.16;4992471;28;20030;-69
2021/10/21 05:03:13;;;;;;;0.30;0.30;;;;;;;14.06;69.08;97468.59;4992297;28;20058;-69
2021/10/21 05:05:42;;;;;;;0.28;0.28;;;;;;;13.94;69.90;97479.66;4992231;28;20041;-69
2021/10/21 05:08:07;;;;;;;0.40;0.40;;;;;;;13.86;68.48;97492.22;4969937;28;20042;-69
2021/10/21 05:10:33;;;;;;;0.30;0.30;;;;;;;13.89;65.31;97476.47;4992165;28;20125;-69
2021/10/21 05:12:59;;;;;;;0.25;0.25;;;;;;;13.99;62.56;97482.88;5007471;28;20042;-69
2021/10/21 05:15:25;;;;;;;0.20;0.20;;;;;;;13.97;63.24;97474.28;5006589;28;20028;-69
2021/10/21 05:17:50;;;;;;;0.30;0.30;;;;;;;13.94;61.59;97490.09;5012249;28;20053;-69
2021/10/21 05:20:16;;;;;;;0.20;0.20;;;;;;;13.83;62.22;97503.66;5011730;28;20033;-69
2021/10/21 05:22:42;;;;;;;0.40;0.40;;;;;;;13.83;62.18;97489.81;5011555;28;20030;-69
2021/10/21 05:25:08;;;;;;;0.20;0.20;;;;;;;13.73;61.22;97527.63;5011725;28;20061;-69
2021/10/21 05:27:36;;;;;;;0.40;0.40;;;;;;;13.70;60.77;97518.22;5011510;28;20105;-69
2021/10/21 05:30:03;;;;;;;0.20;0.20;;;;;;;13.64;60.88;97500.31;5011870;28;20407;-69
2021/10/21 05:32:28;;;;;;;0.30;0.30;;;;;;;13.50;61.79;97506.22;5011499;28;20037;-69
2021/10/21 05:34:54;;;;;;;0.30;0.30;;;;;;;13.57;61.41;97510.19;5013458;28;20018;-69
2021/10/21 05:37:19;;;;;;;0.52;0.40;;;;;;;13.55;59.84;97478.19;5015047;28;20466;-69
2021/10/21 05:39:44;;;;;;;6.65;0.68;;;;;;;13.54;61.02;97507.75;5015140;28;20172;-69
2021/10/21 05:42:10;;;;;;;3.20;1.20;;;;;;;13.55;59.41;97514.63;5014837;28;20447;-69
2021/10/21 05:44:35;;;;;;;0.80;0.45;;;;;;;13.50;60.41;97526.19;5007002;28;20077;-69
2021/10/21 05:47:01;;;;;;;0.30;0.30;;;;;;;13.43;60.42;97524.81;5014829;28;20026;-70
2021/10/21 05:49:26;;;;;;;1.25;0.35;;;;;;;13.37;62.15;97515.53;5014979;28;20372;-70
2021/10/21 05:51:51;;;;;;;1.38;0.40;;;;;;;13.29;61.06;97528.06;5015139;28;20059;-70
2021/10/21 05:54:17;;;;;;;4.68;1.40;;;;;;;13.20;62.77;97539.78;5014967;28;20062;-70
2021/10/21 05:56:43;;;;;;;14.00;3.20;;;;;;;13.11;62.81;97548.00;5014606;28;20022;-70
2021/10/21 05:59:09;;;;;;;0.30;0.30;;;;;;;12.99;65.09;97546.81;5014993;28;20032;-70
2021/10/21 06:01:34;;;;;;;2.88;0.68;;;;;;;13.10;64.46;97575.78;5014544;28;20298;-70
2021/10/21 06:04:00;;;;;;;0.47;0.47;;;;;;;13.06;64.60;97558.63;5014684;28;20064;-70
2021/10/21 06:06:25;;;;;;;5.97;1.08;;;;;;;13.06;63.65;97573.38;5014454;28;20026;-70
2021/10/21 06:08:51;;;;;;;0.57;0.57;;;;;;;13.06;63.25;97578.59;5014566;28;20038;-70
2021/10/21 06:11:16;;;;;;;6.20;1.02;;;;;;;13.30;60.71;97579.22;5014312;28;20022;-70
2021/10/21 06:13:41;;;;;;;0.98;0.98;;;;;;;13.30;61.12;97592.22;5005597;28;20034;-70
2021/10/21 06:16:07;;;;;;;1.10;0.60;;;;;;;13.30;61.06;97597.44;4946439;28;20049;-70
2021/10/21 06:18:34;;;;;;;4.88;1.55;;;;;;;13.32;61.71;97605.97;4994733;28;20022;-70
2021/10/21 06:21:01;;;;;;;0.75;0.75;;;;;;;13.24;61.73;97613.31;4994709;28;20026;-70
2021/10/21 06:23:27;;;;;;;0.30;0.30;;;;;;;13.23;62.14;97617.66;4994551;28;20026;-70
2021/10/21 06:25:53;;;;;;;0.35;0.35;;;;;;;13.19;61.43;97620.44;4994661;28;20126;-70
2021/10/21 06:28:18;;;;;;;5.88;1.92;;;;;;;13.21;60.79;97613.44;4994795;28;20040;-70
2021/10/21 06:30:46;;;;;;;0.30;0.30;;;;;;;13.21;61.29;97618.63;4994744;28;20037;-70
2021/10/21 06:33:12;;;;;;;0.88;0.65;;;;;;;13.08;62.16;97632.19;4994435;28;20042;-70
2021/10/21 06:35:39;;;;;;;0.40;0.28;;;;;;;13.12;61.73;97630.31;4994461;28;20062;-70
2021/10/21 06:38:05;;;;;;;0.30;0.30;;;;;;;13.02;61.32;97629.91;4994474;28;20411;-70
2021/10/21 06:40:30;;;;;;;0.38;0.38;;;;;;;13.15;60.13;97624.09;4994364;28;20076;-70
2021/10/21 06:42:55;;;;;;;1.27;0.30;;;;;;;13.05;62.03;97640.16;5009822;28;20065;-70
2021/10/21 06:45:22;;;;;;;0.50;0.50;;;;;;;13.07;60.65;97633.13;5008073;28;20030;-70
2021/10/21 06:47:47;;;;;;;0.20;0.20;;;;;;;13.03;60.77;97647.19;5013862;28;20025;-70
2021/10/21 06:50:13;;;;;;;0.20;0.20;;;;;;;13.02;61.28;97639.44;5013777;28;20026;-70
2021/10/21 06:52:44;;;;;;;0.30;0.30;;;;;;;13.21;59.19;97639.44;5013959;28;20483;-70
2021/10/21 06:55:12;;;;;;;0.30;0.30;;;;;;;13.20;60.02;97643.81;5013536;28;20397;-70
2021/10/21 06:57:45;;;;;;;0.35;0.35;;;;;;;13.24;59.82;97647.13;5013910;28;20024;-70
2021/10/21 07:00:11;;;;;;;1.20;0.95;;;;;;;13.41;58.68;97662.78;5013548;28;20049;-70
2021/10/21 07:02:37;;;;;;;2.00;0.65;;;;;;;13.44;59.49;97673.06;5013502;28;20418;-70
2021/10/21 07:05:02;;;;;;;3.67;0.40;;;;;;;13.45;58.75;97685.16;5013494;28;20160;-70
2021/10/21 07:07:28;;;;;;;0.47;0.30;;;;;;;13.72;57.01;97684.75;5013267;28;20018;-70
2021/10/21 07:09:53;;;;;;;0.20;0.20;;;;;;;13.83;56.93;97700.72;5013582;28;20021;-70
2021/10/21 07:12:19;;;;;;;1.48;1.38;;;;;;;13.98;57.49;97705.16;5007613;28;20373;-70
2021/10/21 07:14:44;;;;;;;0.30;0.30;;;;;;;14.15;57.76;97723.41;5001696;28;20038;-70
2021/10/21 07:17:09;;;;;;;0.20;0.20;;;;;;;14.06;56.45;97713.41;4993546;28;20027;-70
2021/10/21 07:19:34;;;;;;;0.20;0.20;;;;;;;14.23;56.54;97740.41;4993630;28;20032;-70
2021/10/21 07:22:00;;;;;;;0.70;0.70;;;;;;;14.18;56.67;97732.00;4993368;28;20045;-70
2021/10/21 07:24:25;;;;;;;0.63;0.30;;;;;;;14.25;56.13;97749.00;4993679;28;20438;-70
2021/10/21 07:26:52;;;;;;;2.05;0.73;;;;;;;14.28;54.96;97761.88;4993228;28;20499;-70
2021/10/21 07:29:17;;;;;;;1.05;0.32;;;;;;;14.15;55.51;97775.50;4993498;28;20030;-70
2021/10/21 07:31:43;;;;;;;0.22;0.22;;;;;;;14.27;55.84;97778.44;4993256;28;20364;-70
2021/10/21 07:34:08;;;;;;;0.28;0.28;;;;;;;14.24;55.18;97781.19;4993388;28;20038;-70
2021/10/21 07:36:33;;;;;;;0.30;0.30;;;;;;;14.12;56.29;97806.94;4993167;28;20026;-70
2021/10/21 07:38:58;;;;;;;0.40;0.40;;;;;;;14.05;55.32;97815.94;4993621;28;20029;-70
2021/10/21 07:41:27;;;;;;;6.78;0.95;;;;;;;14.02;55.54;97836.94;4998721;28;20368;-70
2021/10/21 07:43:52;;;;;;;0.22;0.22;;;;;;;14.10;55.07;97834.78;5002628;28;20065;-70
2021/10/21 07:46:18;;;;;;;0.20;0.20;;;;;;;14.15;55.10;97847.59;4993219;28;20034;-70
2021/10/21 07:48:43;;;;;;;0.30;0.30;;;;;;;14.08;55.25;97860.09;4993041;28;20049;-70
2021/10/21 07:51:08;;;;;;;0.30;0.30;;;;;;;14.05;54.39;97851.56;4992931;28;20030;-71
2021/10/21 07:53:33;;;;;;;0.38;0.32;;;;;;;14.06;54.22;97861.91;4993062;28;20456;-70
2021/10/21 07:56:01;;;;;;;1.55;0.77;;;;;;;14.02;54.23;97876.00;4993003;28;20026;-70
2021/10/21 07:58:26;;;;;;;1.25;0.85;;;;;;;14.06;54.77;97885.34;4992555;28;20102;-70
2021/10/21 08:00:51;;;;;;;1.45;0.40;;;;;;;14.15;53.98;97884.91;4993131;28;20449;-70
2021/10/21 08:03:20;;;;;;;0.30;0.30;;;;;;;14.17;54.44;97897.00;4992718;28;20073;-71
2021/10/21 08:05:45;;;;;;;0.50;0.50;;;;;;;14.18;53.99;97901.34;4992832;28;20426;-70
2021/10/21 08:08:11;;;;;;;0.30;0.30;;;;;;;14.22;54.20;97913.31;4992778;28;20022;-70
2021/10/21 08:10:36;;;;;;;0.20;0.20;;;;;;;14.90;50.96;97906.56;4992858;28;20030;-70
2021/10/21 08:13:02;;;;;;;0.57;0.57;;;;;;;14.87;51.15;97915.38;5003168;28;20026;-70
2021/10/21 08:15:28;;;;;;;1.38;0.65;;;;;;;15.06;50.53;97920.53;4997370;28;20069;-71
2021/10/21 08:17:54;;;;;;;0.25;0.25;;;;;;;16.88;45.93;97933.53;4992602;28;20018;-70
2021/10/21 08:20:23;;;;;;;0.40;0.40;;;;;;;15.77;48.70;97954.38;4992691;28;20027;-71
2021/10/21 08:22:48;;;;;;;0.10;0.10;;;;;;;14.73;50.30;97937.84;4991154;28;20495;-71
2021/10/21 08:25:15;;;;;;;0.20;0.20;;;;;;;14.44;51.91;97958.28;4991380;28;20037;-70
2021/10/21 08:27:41;;;;;;;0.20;0.20;;;;;;;14.25;51.73;97962.66;4992580;28;20060;-70
2021/10/21 08:30:07;;;;;;;0.20;0.20;;;;;;;14.20;52.43;97975.03;4992616;28;20026;-70
2021/10/21 08:32:33;;;;;;;0.20;0.20;;;;;;;14.25;51.84;97952.22;4992502;28;20022;-70
2021/10/21 08:34:59;;;;;;;0.28;0.28;;;;;;;14.51;51.30;97980.59;4992414;28;20030;-70
2021/10/21 08:37:25;;;;;;;0.20;0.20;;;;;;;14.26;51.13;97980.81;4992675;28;20494;-70
2021/10/21 08:39:51;;;;;;;0.55;0.30;;;;;;;14.29;51.33;97995.47;4992488;28;20026;-70
2021/10/21 08:42:18;;;;;;;0.20;0.20;;;;;;;14.23;51.39;98003.59;4999787;28;20033;-70
2021/10/21 08:44:44;;;;;;;2.17;0.88;;;;;;;14.23;52.64;98016.59;5000399;28;20023;-70
2021/10/21 08:47:10;;;;;;;0.30;0.30;;;;;;;14.10;52.19;97995.47;4992296;28;20030;-70
2021/10/21 08:49:37;;;;;;;0.28;0.28;;;;;;;14.21;52.56;98018.41;4992287;28;20089;-70
2021/10/21 08:52:04;;;;;;;0.40;0.40;;;;;;;14.29;52.65;98052.81;4992504;28;20088;-70
2021/10/21 08:54:30;;;;;;;1.73;1.20;;;;;;;14.32;52.66;98052.69;4991139;28;20479;-70
2021/10/21 08:56:56;;;;;;;1.38;0.32;;;;;;;14.42;53.02;98058.31;4992290;28;20034;-70
2021/10/21 08:59:21;;;;;;;0.20;0.20;;;;;;;14.22;53.75;98082.66;4992450;28;20057;-70
2021/10/21 09:01:50;;;;;;;0.25;0.25;;;;;;;13.78;54.22;98094.09;4992172;28;20027;-70
2021/10/21 09:04:39;;;;;;;0.20;0.20;;;;;;;13.72;55.42;98103.88;4992185;28;20023;-70
2021/10/21 09:09:41;;;;;;;0.30;0.30;;;;;;;13.51;56.15;98121.25;4993672;28;20039;-70
2021/10/21 09:12:17;;;;;;;3.70;0.35;;;;;;;14.08;55.21;98131.00;5006305;28;20422;-70
2021/10/21 09:14:51;;;;;;;1.20;0.40;;;;;;;15.01;52.80;98151.28;5007091;28;20025;-70
2021/10/21 09:17:26;;;;;;;0.35;0.35;;;;;;;14.23;54.02;98152.94;5015393;28;20491;-70
2021/10/21 09:19:53;;;;;;;0.28;0.28;;;;;;;13.94;55.28;98162.00;5015494;28;20042;-70
2021/10/21 09:22:29;;;;;;;0.55;0.52;;;;;;;13.67;55.95;98173.53;5015440;28;20407;-70
2021/10/21 09:25:07;;;;;;;0.55;0.55;;;;;;;13.26;57.37;98178.59;5015389;28;20036;-70
2021/10/21 09:27:36;;;;;;;0.20;0.20;;;;;;;13.38;57.51;98178.13;5015409;28;20026;-70
2021/10/21 09:30:05;;;;;;;0.20;0.20;;;;;;;15.04;52.29;98175.47;5015444;28;20053;-70
2021/10/21 09:32:35;;;;;;;0.30;0.30;;;;;;;16.74;48.23;98197.69;5014053;28;20410;-70
2021/10/21 09:35:03;;;;;;;0.20;0.20;;;;;;;16.95;47.39;98186.09;5003858;28;20030;-70
2021/10/21 09:37:31;;;;;;;0.10;0.10;;;;;;;18.61;42.37;98199.41;4995370;28;20034;-70
2021/10/21 09:39:59;;;;;;;0.20;0.20;;;;;;;17.31;45.43;98216.44;4995575;28;20472;-70
2021/10/21 09:42:55;;;;;;;0.13;0.13;;;;;;;19.05;42.79;98208.16;5002877;28;20037;-70
2021/10/21 09:45:22;;;;;;;0.10;0.10;;;;;;;17.93;44.30;98222.63;4991290;28;20038;-70
2021/10/21 09:47:57;;;;;;;0.20;0.20;;;;;;;17.11;45.21;98223.59;4995140;28;20031;-70
2021/10/21 09:50:31;;;;;;;0.10;0.10;;;;;;;16.01;47.92;98237.06;4995451;28;20036;-70
2021/10/21 09:53:22;;;;;;;0.20;0.20;;;;;;;15.82;49.33;98249.31;4995101;28;20072;-70
2021/10/21 09:56:01;;;;;;;0.60;0.60;;;;;;;15.81;49.19;98258.06;4995310;28;20049;-70
2021/10/21 09:58:27;;;;;;;0.20;0.20;;;;;;;15.12;50.79;98262.06;4995159;28;20023;-70
2021/10/21 10:01:08;;;;;;;0.20;0.20;;;;;;;14.54;53.08;98267.19;4995280;28;20426;-70
2021/10/21 10:03:37;;;;;;;0.40;0.40;;;;;;;14.20;53.69;98287.72;5004882;28;20030;-70
2021/10/21 10:06:02;;;;;;;0.20;0.20;;;;;;;13.97;53.92;98294.69;5006416;28;20026;-70
2021/10/21 10:08:31;;;;;;;0.65;0.47;;;;;;;14.62;52.06;98290.34;5014412;28;20127;-71
2021/10/21 10:10:59;;;;;;;0.30;0.30;;;;;;;14.11;51.67;98310.63;5014413;28;20121;-70
2021/10/21 10:13:27;;;;;;;0.20;0.20;;;;;;;14.80;51.27;98320.03;5006080;28;20045;-70
2021/10/21 10:15:54;;;;;;;0.38;0.38;;;;;;;15.96;49.65;98309.59;4995913;28;20034;-70
2021/10/21 10:18:20;;;;;;;0.20;0.20;;;;;;;17.18;46.19;98313.16;4994732;28;20031;-70
2021/10/21 10:20:55;;;;;;;1.10;0.55;;;;;;;16.72;44.66;98323.34;4994518;28;20101;-70
2021/10/21 10:23:22;;;;;;;0.20;0.20;;;;;;;16.01;45.57;98323.31;4994501;28;20026;-70
2021/10/21 10:25:50;;;;;;;0.20;0.20;;;;;;;17.35;44.20;98314.88;4994716;28;20032;-70
2021/10/21 10:28:16;;;;;;;0.20;0.20;;;;;;;17.68;43.08;98313.06;4994497;28;20027;-70
2021/10/21 10:30:51;;;;;;;0.20;0.20;;;;;;;17.78;42.93;98312.59;4995177;28;20492;-72
2021/10/21 10:33:32;;;;;;;0.10;0.10;;;;;;;19.17;38.94;98312.47;5002114;28;20030;-72
2021/10/21 10:36:26;;;;;;;0.30;0.30;;;;;;;19.88;37.34;98304.59;5005686;28;20033;-72
2021/10/21 10:38:53;;;;;;;0.10;0.10;;;;;;;20.33;35.87;98293.81;5013971;28;20037;-73
2021/10/21 10:41:48;;;;;;;0.10;0.10;;;;;;;18.41;39.12;98317.78;5013906;28;20026;-73
2021/10/21 10:44:35;;;;;;;0.45;0.40;;;;;;;19.30;36.55;98326.56;5002058;28;20026;-73
2021/10/21 10:47:04;;;;;;;0.10;0.10;;;;;;;19.09;36.96;98325.22;4994135;28;20018;-73
2021/10/21 10:49:39;;;;;;;0.10;0.10;;;;;;;20.35;35.29;98320.88;4994230;28;20026;-73
2021/10/21 10:52:12;;;;;;;0.20;0.20;;;;;;;20.52;34.60;98326.75;4994008;28;20514;-73
2021/10/21 10:54:44;;;;;;;0.45;0.43;;;;;;;19.66;36.40;98325.28;4993954;28;20045;-73
2021/10/21 10:57:24;;;;;;;0.10;0.10;;;;;;;19.38;36.55;98320.84;4994025;28;20022;-73
2021/10/21 10:59:54;;;;;;;0.30;0.30;;;;;;;20.99;33.07;98309.59;4993969;28;20038;-73
2021/10/21 11:02:22;;;;;;;0.40;0.40;;;;;;;22.21;32.68;98309.84;4993923;28;20491;-73
2021/10/21 11:04:51;;;;;;;4.47;0.68;;;;;;;21.36;33.34;98320.25;5005233;28;20176;-73
2021/10/21 11:07:17;;;;;;;0.30;0.30;;;;;;;21.30;32.93;98318.88;5013182;28;20033;-73
2021/10/21 11:09:44;;;;;;;0.10;0.10;;;;;;;20.34;34.60;98317.41;5013508;28;20034;-73
2021/10/21 11:12:12;;;;;;;1.30;0.73;;;;;;;21.09;33.10;98325.59;5008659;28;20499;-73
2021/10/21 11:14:42;;;;;;;0.20;0.20;;;;;;;20.48;34.61;98313.91;5001872;28;20030;-73
2021/10/21 11:17:09;;;;;;;0.45;0.15;;;;;;;19.64;36.33;98327.16;4993543;28;20076;-73
2021/10/21 11:19:44;;;;;;;3.22;0.60;;;;;;;21.09;34.31;98320.34;4993672;28;20081;-73
2021/10/21 11:22:10;;;;;;;3.10;0.30;;;;;;;22.75;31.72;98309.34;4993478;28;20030;-73
2021/10/21 11:24:48;;;;;;;0.20;0.20;;;;;;;22.99;30.81;98312.81;4993494;28;20518;-71
2021/10/21 11:27:23;;;;;;;0.17;0.17;;;;;;;21.27;32.74;98313.81;4993107;28;20472;-70
2021/10/21 11:29:49;;;;;;;0.10;0.10;;;;;;;21.23;33.51;98317.59;4993480;28;20038;-70
2021/10/21 11:32:17;;;;;;;3.65;1.02;;;;;;;21.91;32.28;98320.81;4992361;28;20030;-71
2021/10/21 11:34:47;;;;;;;0.10;0.10;;;;;;;21.70;32.24;98321.34;5004586;28;20042;-71
2021/10/21 11:37:13;;;;;;;0.17;0.17;;;;;;;22.01;31.82;98313.91;5012846;28;20541;-71
2021/10/21 11:39:39;;;;;;;1.35;0.32;;;;;;;19.71;34.84;98329.28;5013040;28;20300;-70
2021/10/21 11:42:07;;;;;;;0.30;0.17;;;;;;;21.49;32.26;98317.59;5008806;28;20061;-71
2021/10/21 11:44:32;;;;;;;0.22;0.22;;;;;;;20.99;33.28;98321.91;5001128;28;20109;-71
2021/10/21 11:47:00;;;;;;;1.67;0.45;;;;;;;21.70;32.83;98326.63;4993088;28;20149;-71
2021/10/21 11:49:26;;;;;;;0.10;0.10;;;;;;;20.83;34.39;98323.88;4993095;28;20033;-71
2021/10/21 11:52:21;;;;;;;0.40;0.38;;;;;;;19.13;36.00;98322.31;4993148;28;20022;-71
2021/10/21 11:54:46;;;;;;;0.20;0.20;;;;;;;19.74;36.80;98318.59;4992592;28;20487;-71
2021/10/21 11:57:11;;;;;;;0.47;0.32;;;;;;;20.29;34.00;98314.22;4992878;28;20069;-71
2021/10/21 11:59:39;;;;;;;0.20;0.20;;;;;;;19.74;35.42;98317.75;4992878;28;20030;-71
2021/10/21 12:02:18;;;;;;;1.00;0.30;;;;;;;20.00;34.55;98314.31;4992753;28;20027;-71
2021/10/21 12:04:45;;;;;;;0.30;0.17;;;;;;;18.43;37.76;98322.03;5003979;28;20023;-71
2021/10/21 12:07:11;;;;;;;0.28;0.22;;;;;;;17.33;38.32;98306.25;5012292;28;20280;-71
2021/10/21 12:09:37;;;;;;;0.20;0.20;;;;;;;17.06;40.71;98309.38;5012142;28;20040;-71
2021/10/21 12:12:06;;;;;;;0.28;0.28;;;;;;;17.04;40.04;98308.63;5008581;28;20130;-71
2021/10/21 12:14:32;;;;;;;0.20;0.20;;;;;;;16.83;40.05;98307.13;5000648;28;20026;-71
2021/10/21 12:16:58;;;;;;;0.45;0.17;;;;;;;15.87;41.93;98317.88;4992672;28;20049;-71
2021/10/21 12:19:24;;;;;;;0.10;0.10;;;;;;;15.67;41.84;98317.03;4992612;28;20476;-71
2021/10/21 12:21:51;;;;;;;0.20;0.20;;;;;;;15.40;43.60;98313.03;4992623;28;20030;-71
2021/10/21 12:24:27;;;;;;;4.57;1.25;;;;;;;15.47;44.75;98324.88;4992484;28;20023;-71
2021/10/21 12:27:01;;;;;;;0.20;0.20;;;;;;;15.15;42.51;98331.53;4992490;28;20101;-71
2021/10/21 12:29:42;;;;;;;0.20;0.20;;;;;;;15.24;41.87;98317.25;4992659;28;20040;-71
2021/10/21 12:32:21;;;;;;;1.55;1.08;;;;;;;15.10;42.72;98321.31;4992541;28;20026;-71
2021/10/21 12:34:47;;;;;;;0.20;0.20;;;;;;;15.25;42.88;98326.78;5001604;28;20526;-71
2021/10/21 12:37:18;;;;;;;0.47;0.47;;;;;;;15.17;42.06;98314.88;5012174;28;20025;-71
2021/10/21 12:39:44;;;;;;;0.30;0.30;;;;;;;14.96;43.40;98321.06;5012181;28;20041;-71
2021/10/21 12:42:18;;;;;;;0.20;0.20;;;;;;;14.91;44.19;98313.44;5007350;28;20031;-71
2021/10/21 12:44:44;;;;;;;0.20;0.20;;;;;;;14.79;43.42;98315.69;5003711;28;20030;-71
2021/10/21 12:47:20;;;;;;;0.20;0.20;;;;;;;15.05;43.72;98320.66;4995947;28;20022;-71
2021/10/21 12:50:04;;;;;;;1.08;1.08;;;;;;;14.85;43.98;98316.31;4996531;28;20112;-71
2021/10/21 12:52:44;;;;;;;0.17;0.17;;;;;;;14.99;44.46;98307.88;4995998;28;20026;-71
2021/10/21 12:55:21;;;;;;;0.20;0.20;;;;;;;14.94;44.33;98307.25;4996227;28;20076;-71
2021/10/21 12:57:54;;;;;;;0.30;0.30;;;;;;;15.35;43.73;98291.50;4996295;28;20426;-71
2021/10/21 13:00:34;;;;;;;0.35;0.30;;;;;;;15.21;44.18;98288.66;4996352;28;20045;-71
2021/10/21 13:03:04;;;;;;;;;;;;;;;14.84;43.89;98287.66;5001751;28;20398;-71
2021/10/21 13:05:30;;;;;;;0.28;0.28;;;;;;;15.10;44.23;98287.38;5007512;28;20586;-71
2021/10/21 13:07:56;;;;;;;0.28;0.28;;;;;;;15.52;44.05;98273.31;5015550;28;20029;-71
2021/10/21 13:10:22;;;;;;;1.10;1.00;;;;;;;15.32;43.75;98286.41;5015910;28;20453;-71
2021/10/21 13:12:47;;;;;;;1.15;0.80;;;;;;;15.24;44.55;98278.09;5007103;28;20030;-73
2021/10/21 13:15:13;;;;;;;0.80;0.50;;;;;;;14.99;45.36;98279.19;5002478;28;20162;-73
2021/10/21 13:17:38;;;;;;;0.43;0.43;;;;;;;14.81;45.35;98279.97;4995809;28;20080;-73
2021/10/21 13:20:04;;;;;;;0.25;0.25;;;;;;;14.74;46.49;98278.53;4996060;28;20026;-73
2021/10/21 13:22:29;;;;;;;0.30;0.25;;;;;;;14.70;46.04;98282.19;4995616;28;20498;-73
2021/10/21 13:24:55;;;;;;;0.20;0.20;;;;;;;14.85;46.23;98285.00;4995728;28;20061;-73
2021/10/21 13:27:20;;;;;;;0.30;0.30;;;;;;;15.09;46.15;98272.66;4995341;28;20031;-73
2021/10/21 13:29:45;;;;;;;0.85;0.70;;;;;;;15.56;44.64;98264.41;4995747;28;20058;-73
2021/10/21 13:32:11;;;;;;;0.20;0.20;;;;;;;16.00;43.71;98258.03;4995595;28;20084;-73
2021/10/21 13:34:37;;;;;;;0.30;0.30;;;;;;;15.97;43.72;98264.25;5006142;28;20030;-73
2021/10/21 13:37:05;;;;;;;0.20;0.20;;;;;;;16.06;43.18;98260.38;5014898;28;20098;-73
2021/10/21 13:39:30;;;;;;;0.22;0.22;;;;;;;16.14;43.44;98271.28;5015060;28;20032;-73
2021/10/21 13:41:56;;;;;;;0.20;0.20;;;;;;;15.85;42.08;98259.59;5012677;28;20026;-73
2021/10/21 13:44:21;;;;;;;0.13;0.13;;;;;;;15.38;43.18;98240.00;5003369;28;20395;-73
2021/10/21 13:46:46;;;;;;;0.20;0.20;;;;;;;15.25;43.31;98264.13;4995380;28;20097;-73
2021/10/21 13:49:13;;;;;;;0.22;0.22;;;;;;;15.71;43.32;98259.41;4995326;28;20041;-73
2021/10/21 13:51:38;;;;;;;0.50;0.50;;;;;;;15.74;43.11;98262.72;4995127;28;20026;-71
2021/10/21 13:54:05;;;;;;;0.30;0.30;;;;;;;15.56;41.18;98259.19;4995361;28;20022;-73
2021/10/21 13:56:32;;;;;;;0.38;0.38;;;;;;;15.46;42.18;98265.75;4994638;28;20026;-72
2021/10/21 13:58:57;;;;;;;0.35;0.35;;;;;;;15.52;41.77;98262.88;4995130;28;20491;-72
2021/10/21 14:01:24;;;;;;;0.20;0.20;;;;;;;15.61;41.43;98267.63;4995090;28;20050;-72
2021/10/21 14:03:49;;;;;;;0.93;0.82;;;;;;;15.58;42.53;98265.19;5005680;28;20402;-72
2021/10/21 14:06:17;;;;;;;2.90;1.00;;;;;;;15.30;43.09;98256.94;5007800;28;20026;-70
2021/10/21 14:08:43;;;;;;;2.83;0.30;;;;;;;15.17;43.52;98265.31;5014890;28;20022;-70
2021/10/21 14:11:09;;;;;;;0.30;0.30;;;;;;;14.97;43.74;98256.69;5014466;28;20088;-71
2021/10/21 14:13:34;;;;;;;0.20;0.20;;;;;;;15.23;42.89;98258.09;5006348;28;20475;-70
2021/10/21 14:16:00;;;;;;;0.25;0.25;;;;;;;15.26;42.38;98260.59;4995154;28;20041;-70
2021/10/21 14:18:26;;;;;;;1.55;0.40;;;;;;;15.41;41.30;98239.00;4994732;28;20042;-70
2021/10/21 14:20:51;;;;;;;0.20;0.20;;;;;;;15.51;41.65;98240.25;4994596;28;20037;-70
2021/10/21 14:23:16;;;;;;;1.50;1.10;;;;;;;15.56;41.57;98238.28;4994588;28;20052;-71
2021/10/21 14:25:42;;;;;;;0.65;0.65;;;;;;;15.37;41.35;98237.44;4994495;28;20030;-70
2021/10/21 14:28:07;;;;;;;0.57;0.57;;;;;;;15.53;41.47;98243.66;4993442;28;20065;-70
2021/10/21 14:30:32;;;;;;;0.20;0.20;;;;;;;15.27;41.63;98251.84;4994647;28;20037;-70
2021/10/21 14:32:58;;;;;;;0.20;0.20;;;;;;;15.08;40.79;98257.88;4999584;28;20033;-70
2021/10/21 14:35:25;;;;;;;0.20;0.20;;;;;;;14.82;41.75;98256.44;5005807;28;20046;-70
2021/10/21 14:37:51;;;;;;;0.30;0.30;;;;;;;14.78;41.49;98254.03;5013940;28;20101;-68
2021/10/21 14:40:17;;;;;;;0.40;0.40;;;;;;;14.93;41.69;98242.91;5014381;28;20060;-68
2021/10/21 14:42:43;;;;;;;0.35;0.30;;;;;;;14.97;40.63;98244.47;5005451;28;20037;-68
2021/10/21 14:45:10;;;;;;;0.32;0.32;;;;;;;15.10;41.65;98229.13;5001823;28;20443;-68
2021/10/21 14:47:36;;;;;;;0.20;0.20;;;;;;;15.11;41.58;98241.25;4994155;28;20070;-68
2021/10/21 14:50:06;;;;;;;0.50;0.50;;;;;;;14.74;41.55;98242.03;4994237;28;20033;-68
2021/10/21 14:52:31;;;;;;;;;;;;;;;14.49;42.38;98243.06;4994539;28;20026;-68
2021/10/21 14:54:57;;;;;;;0.30;0.30;;;;;;;14.55;43.27;98237.63;4994191;28;19909;-68
2021/10/21 14:57:22;;;;;;;1.08;0.30;;;;;;;14.73;42.22;98240.34;4993951;28;20373;-68
2021/10/21 14:59:48;;;;;;;0.63;0.63;;;;;;;14.85;41.81;98235.44;4994363;28;20022;-67
2021/10/21 15:02:13;;;;;;;1.13;0.52;;;;;;;14.79;42.27;98242.66;4993765;28;20499;-68
2021/10/21 15:04:40;;;;;;;0.20;0.20;;;;;;;14.60;42.01;98246.09;5004426;28;20041;-68
2021/10/21 15:23:20;;;;;;;3.17;0.80;;;;;;;14.18;43.67;98233.06;5013176;28;20039;-68
2021/10/21 15:25:46;;;;;;;0.57;0.47;;;;;;;14.18;44.75;98235.69;5013079;28;20472;-68
2021/10/21 15:28:14;;;;;;;0.38;0.38;;;;;;;14.10;44.40;98241.19;5013143;28;20030;-69
2021/10/21 15:30:39;;;;;;;1.67;1.05;;;;;;;14.06;44.22;98236.16;5012875;28;20030;-68
2021/10/21 15:33:05;;;;;;;0.30;0.30;;;;;;;14.05;44.03;98235.31;5018461;28;20033;-69
2021/10/21 15:35:31;;;;;;;0.30;0.30;;;;;;;14.06;44.59;98244.81;5012717;28;20431;-68
2021/10/21 15:37:57;;;;;;;0.70;0.50;;;;;;;14.13;45.76;98230.66;5015377;28;20101;-68
2021/10/21 15:40:24;;;;;;;0.45;0.30;;;;;;;14.18;44.96;98234.84;5018422;28;20025;-68
2021/10/21 15:42:49;;;;;;;0.50;0.50;;;;;;;14.08;44.72;98232.59;5003034;28;20479;-68
2021/10/21 15:48:04;;;;;;;0.90;0.90;;;;;;;14.19;45.48;98224.34;4993247;28;20076;-70
2021/10/21 15:50:48;;;;;;;0.70;0.70;;;;;;;14.05;46.59;98219.69;4992657;28;20033;-69
2021/10/21 16:12:26;;;;;;;0.52;0.52;;;;;;;13.43;47.04;98236.03;5005689;28;20049;-69
2021/10/21 16:15:04;;;;;;;0.40;0.40;;;;;;;13.49;47.12;98225.41;5000619;28;20503;-69
2021/10/21 16:17:32;;;;;;;0.55;0.55;;;;;;;13.41;46.43;98224.00;4992223;28;20035;-70
2021/10/21 16:20:45;;;;;;;0.50;0.50;;;;;;;13.39;45.45;98224.03;4992470;28;20483;-75
2021/10/21 16:22:48;;;;;;;1.23;1.10;;;;;;;13.29;45.81;98227.91;4988253;28;20534;-69
2021/10/21 16:28:02;;;;;;;0.40;0.40;;;;;;;13.17;47.79;98231.78;4992453;28;19909;-69
2021/10/21 16:30:29;;;;;;;0.30;0.30;;;;;;;13.09;46.58;98224.25;4992684;28;20141;-71
2021/10/21 16:32:55;;;;;;;2.67;2.10;;;;;;;12.99;46.70;98238.50;4997454;28;20030;-71
2021/10/21 16:35:20;;;;;;;2.83;0.85;;;;;;;13.01;46.51;98241.94;5003600;28;20025;-71
2021/10/21 16:37:46;;;;;;;0.43;0.43;;;;;;;13.07;46.85;98246.91;5012009;28;20488;-71